Time;durP1;ratioP1;P1;durP2;ratioP2;P2;SDS_P1;SDS_P2;PMS_P1;PMS_P2;Temp;Humidity;BMP_temperature;BMP_pressure;BME280_temperature;BME280_humidity;BME280_pressure;Samples;Min_cycle;Max_cycle;Signal;HPM_P1;HPM_P2
2023/08/05 00:00:23;;;;;;;;;;;;;;;20.24;100.00;99225.94;5013263;28;881;-59
2023/08/05 00:02:50;;;;;;;;;;;;;;;20.19;100.00;99233.00;5013150;28;980;-59
2023/08/05 00:05:17;;;;;;;;;;;;;;;20.18;100.00;99223.06;5012966;28;858;-59
2023/08/05 00:07:44;;;;;;;;;;;;;;;20.17;100.00;99218.69;5013078;28;889;-59
2023/08/05 00:10:10;;;;;;;;;;;;;;;20.22;100.00;99219.28;5012918;28;1882;-59
2023/08/05 00:12:37;;;;;;;;;;;;;;;20.22;100.00;99225.66;5012906;28;835;-60
2023/08/05 00:15:05;;;;;;;;;;;;;;;20.21;100.00;99220.53;5012930;28;902;-60
2023/08/05 00:17:32;;;;;;;;;;;;;;;20.27;100.00;99216.59;5012756;28;862;-59
2023/08/05 00:19:59;;;;;;;;;;;;;;;20.34;100.00;99221.03;5012913;28;878;-59
2023/08/05 00:22:26;;;;;;;;;;;;;;;20.36;100.00;99222.09;5012751;28;875;-59
2023/08/05 00:24:54;;;;;;;;;;;;;;;20.46;100.00;99221.97;5012752;28;873;-59
2023/08/05 00:27:21;;;;;;;;;;;;;;;20.57;100.00;99216.56;5011867;28;834;-59
2023/08/05 00:29:49;;;;;;;;;;;;;;;20.60;100.00;99219.19;5012813;28;1959;-59
2023/08/05 00:32:15;;;;;;;;;;;;;;;20.59;100.00;99217.66;5011360;28;1194;-59
2023/08/05 00:34:43;;;;;;;;;;;;;;;20.53;100.00;99213.94;5012449;28;885;-59
2023/08/05 00:37:10;;;;;;;;;;;;;;;20.50;100.00;99217.72;5012698;28;886;-60
2023/08/05 00:39:37;;;;;;;;;;;;;;;20.44;100.00;99213.28;5012536;28;891;-59
2023/08/05 00:42:04;;;;;;;;;;;;;;;20.33;100.00;99213.84;5012535;28;862;-59
2023/08/05 00:44:31;;;;;;;;;;;;;;;20.21;100.00;99212.91;5012398;28;892;-59
2023/08/05 00:46:58;;;;;;;;;;;;;;;20.10;100.00;99201.47;5012486;28;846;-59
2023/08/05 00:49:25;;;;;;;;;;;;;;;20.02;100.00;99205.94;5022553;28;1184;-59
2023/08/05 00:51:52;;;;;;;;;;;;;;;19.96;100.00;99205.81;5030721;28;2624;-59
2023/08/05 00:54:20;;;;;;;;;;;;;;;19.90;100.00;99199.31;5032146;28;799;-59
2023/08/05 00:56:47;;;;;;;;;;;;;;;19.82;100.00;99198.13;5031985;28;876;-59
2023/08/05 00:59:13;;;;;;;;;;;;;;;19.69;100.00;99189.97;5032060;28;861;-59
2023/08/05 01:01:40;;;;;;;;;;;;;;;19.61;100.00;99188.78;5031947;28;842;-59
2023/08/05 01:04:08;;;;;;;;;;;;;;;19.54;100.00;99189.94;5031840;28;806;-59
2023/08/05 01:06:35;;;;;;;;;;;;;;;19.47;100.00;99179.88;5031785;28;1056;-59
2023/08/05 01:09:02;;;;;;;;;;;;;;;19.43;100.00;99184.09;5031925;28;822;-59
2023/08/05 01:11:28;;;;;;;;;;;;;;;19.42;100.00;99179.78;5031726;28;1948;-59
2023/08/05 01:13:55;;;;;;;;;;;;;;;19.39;100.00;99173.06;5031852;28;803;-59
2023/08/05 01:16:22;;;;;;;;;;;;;;;19.32;100.00;99171.41;5031753;28;882;-59
2023/08/05 01:18:48;;;;;;;;;;;;;;;19.33;100.00;99174.97;5031854;28;830;-59
2023/08/05 01:21:19;;;;;;;;;;;;;;;19.37;100.00;99179.19;5031841;28;822;-59
2023/08/05 01:23:46;;;;;;;;;;;;;;;19.45;100.00;99179.56;5031690;28;926;-59
2023/08/05 01:26:13;;;;;;;;;;;;;;;19.48;100.00;99175.81;5031835;28;858;-59
2023/08/05 01:28:40;;;;;;;;;;;;;;;19.42;100.00;99174.94;5031684;28;930;-59
2023/08/05 01:31:07;;;;;;;;;;;;;;;19.34;100.00;99171.72;5031743;28;1977;-59
2023/08/05 01:33:35;;;;;;;;;;;;;;;19.24;100.00;99172.25;5031644;28;862;-59
2023/08/05 01:36:01;;;;;;;;;;;;;;;19.10;100.00;99168.94;5031602;28;1021;-59
2023/08/05 01:38:28;;;;;;;;;;;;;;;18.95;100.00;99165.28;5031930;28;858;-59
2023/08/05 01:40:55;;;;;;;;;;;;;;;18.83;100.00;99164.25;5035589;28;799;-59
2023/08/05 01:43:22;;;;;;;;;;;;;;;18.79;100.00;99166.44;5035492;28;835;-59
2023/08/05 01:45:49;;;;;;;;;;;;;;;18.73;100.00;99171.13;5035422;28;873;-59
2023/08/05 01:48:15;;;;;;;;;;;;;;;18.69;100.00;99173.31;5017407;28;1238;-59
2023/08/05 01:50:42;;;;;;;;;;;;;;;18.77;100.00;99174.50;5035299;28;1914;-56
2023/08/05 01:53:09;;;;;;;;;;;;;;;18.82;100.00;99181.50;5035388;28;862;-56
2023/08/05 01:55:37;;;;;;;;;;;;;;;18.78;100.00;99190.09;5035216;28;806;-57
2023/08/05 01:58:04;;;;;;;;;;;;;;;18.76;100.00;99184.94;5035222;28;876;-56
2023/08/05 02:00:31;;;;;;;;;;;;;;;18.72;100.00;99197.56;5035194;28;822;-56
2023/08/05 02:02:58;;;;;;;;;;;;;;;18.71;100.00;99190.41;5035124;28;819;-58
2023/08/05 02:05:24;;;;;;;;;;;;;;;18.71;100.00;99196.78;5035101;28;814;-58
2023/08/05 02:07:51;;;;;;;;;;;;;;;18.71;100.00;99196.00;5035082;28;822;-58
2023/08/05 02:10:18;;;;;;;;;;;;;;;18.74;100.00;99195.06;5034950;28;1890;-58
2023/08/05 02:12:45;;;;;;;;;;;;;;;18.70;100.00;99192.44;5034979;28;819;-58
2023/08/05 02:15:12;;;;;;;;;;;;;;;18.59;100.00;99191.41;5034988;28;834;-59
2023/08/05 02:17:39;;;;;;;;;;;;;;;18.46;100.00;99186.78;5034893;28;882;-59
2023/08/05 02:20:08;;;;;;;;;;;;;;;18.34;100.00;99187.75;5034881;28;854;-59
2023/08/05 02:22:34;;;;;;;;;;;;;;;18.27;100.00;99174.88;5034759;28;835;-59
2023/08/05 02:25:02;;;;;;;;;;;;;;;18.24;100.00;99189.00;5034828;28;822;-58
2023/08/05 02:27:28;;;;;;;;;;;;;;;18.19;100.00;99186.88;5034614;28;870;-58
2023/08/05 02:29:55;;;;;;;;;;;;;;;18.24;100.00;99198.16;5034657;28;1894;-59
2023/08/05 02:32:22;;;;;;;;;;;;;;;18.30;100.00;99198.31;5034529;28;811;-59
2023/08/05 02:34:48;;;;;;;;;;;;;;;18.40;100.00;99199.84;5034862;28;843;-59
2023/08/05 02:37:14;;;;;;;;;;;;;;;18.46;100.00;99200.00;5034510;28;885;-59
2023/08/05 02:39:41;;;;;;;;;;;;;;;18.42;100.00;99205.75;5034691;28;806;-59
2023/08/05 02:42:08;;;;;;;;;;;;;;;18.35;100.00;99200.50;5034426;28;885;-58
2023/08/05 02:44:35;;;;;;;;;;;;;;;18.33;100.00;99203.00;5034666;28;877;-58
2023/08/05 02:47:02;;;;;;;;;;;;;;;18.22;100.00;99202.69;5034452;28;838;-59
2023/08/05 02:49:29;;;;;;;;;;;;;;;18.14;100.00;99196.66;5034092;28;1346;-59
2023/08/05 02:51:56;;;;;;;;;;;;;;;18.10;100.00;99199.63;5033304;28;1973;-59
2023/08/05 02:54:22;;;;;;;;;;;;;;;18.08;100.00;99199.31;5034179;28;905;-59
2023/08/05 02:56:49;;;;;;;;;;;;;;;18.15;100.00;99201.00;5034419;28;838;-59
2023/08/05 02:59:17;;;;;;;;;;;;;;;18.27;100.00;99204.88;5034100;28;815;-59
2023/08/05 03:01:43;;;;;;;;;;;;;;;18.28;100.00;99212.78;5034074;28;898;-59
2023/08/05 03:04:11;;;;;;;;;;;;;;;18.29;100.00;99202.38;5034044;28;857;-59
2023/08/05 03:06:38;;;;;;;;;;;;;;;18.42;100.00;99202.19;5034214;28;803;-59
2023/08/05 03:09:05;;;;;;;;;;;;;;;18.63;100.00;99197.63;5033893;28;905;-59
2023/08/05 03:11:31;;;;;;;;;;;;;;;18.84;100.00;99193.81;5033892;28;1886;-59
2023/08/05 03:13:58;;;;;;;;;;;;;;;18.97;100.00;99188.00;5033856;28;949;-59
2023/08/05 03:16:25;;;;;;;;;;;;;;;19.03;100.00;99188.09;5033810;28;986;-59
2023/08/05 03:18:52;;;;;;;;;;;;;;;19.11;100.00;99189.31;5033906;28;819;-59
2023/08/05 03:21:19;;;;;;;;;;;;;;;19.21;100.00;99176.03;5033724;28;811;-59
2023/08/05 03:23:46;;;;;;;;;;;;;;;19.32;100.00;99179.06;5033677;28;959;-59
2023/08/05 03:26:13;;;;;;;;;;;;;;;19.45;100.00;99178.81;5033584;28;885;-59
2023/08/05 03:28:40;;;;;;;;;;;;;;;19.56;100.00;99179.78;5033601;28;962;-59
2023/08/05 03:31:07;;;;;;;;;;;;;;;19.67;100.00;99179.25;5033315;28;1956;-59
2023/08/05 03:33:34;;;;;;;;;;;;;;;19.83;100.00;99185.69;5033536;28;892;-59
2023/08/05 03:36:01;;;;;;;;;;;;;;;19.99;100.00;99188.00;5033386;28;819;-59
2023/08/05 03:38:27;;;;;;;;;;;;;;;20.08;100.00;99185.13;5033697;28;950;-59
2023/08/05 03:40:54;;;;;;;;;;;;;;;20.16;100.00;99180.69;5033303;28;893;-59
2023/08/05 03:43:21;;;;;;;;;;;;;;;20.26;100.00;99183.38;5032055;28;1192;-59
2023/08/05 03:45:53;;;;;;;;;;;;;;;20.32;100.00;99184.25;5033255;28;815;-59
2023/08/05 03:48:21;;;;;;;;;;;;;;;20.37;100.00;99187.13;5033144;28;1156;-59
2023/08/05 03:50:48;;;;;;;;;;;;;;;20.45;100.00;99183.97;5033123;28;1918;-59
2023/08/05 03:53:14;;;;;;;;;;;;;;;20.56;100.00;99184.91;5033032;28;901;-59
2023/08/05 03:55:41;;;;;;;;;;;;;;;20.73;100.00;99192.84;5033126;28;826;-59
2023/08/05 03:58:08;;;;;;;;;;;;;;;20.93;100.00;99189.28;5032924;28;925;-59
2023/08/05 04:00:39;;;;;;;;;;;;;;;21.14;100.00;99188.06;5032880;28;854;-59
2023/08/05 04:03:05;;;;;;;;;;;;;;;21.31;100.00;99188.28;5032946;28;886;-59
2023/08/05 04:05:32;;;;;;;;;;;;;;;21.49;100.00;99180.88;5032908;28;846;-57
2023/08/05 04:07:59;;;;;;;;;;;;;;;21.65;100.00;99182.31;5032787;28;882;-57
2023/08/05 04:10:26;;;;;;;;;;;;;;;21.84;100.00;99177.94;5032719;28;1953;-57
2023/08/05 04:12:54;;;;;;;;;;;;;;;22.05;100.00;99177.88;5032705;28;850;-56
2023/08/05 04:15:21;;;;;;;;;;;;;;;22.25;100.00;99182.69;5032924;28;902;-56
2023/08/05 04:17:48;;;;;;;;;;;;;;;22.47;100.00;99184.91;5032587;28;850;-56
2023/08/05 04:20:15;;;;;;;;;;;;;;;22.62;100.00;99180.69;5032644;28;937;-56
2023/08/05 04:22:43;;;;;;;;;;;;;;;22.79;100.00;99180.06;5032618;28;803;-57
2023/08/05 04:25:11;;;;;;;;;;;;;;;22.99;100.00;99184.78;5032366;28;957;-57
2023/08/05 04:27:38;;;;;;;;;;;;;;;23.15;100.00;99188.97;5032680;28;1230;-56
2023/08/05 04:30:06;;;;;;;;;;;;;;;23.31;100.00;99181.91;5032331;28;1957;-56
2023/08/05 04:32:33;;;;;;;;;;;;;;;23.57;100.00;99193.78;5032579;28;1228;-56
2023/08/05 04:35:00;;;;;;;;;;;;;;;23.89;100.00;99193.66;5032652;28;1193;-56
2023/08/05 04:37:27;;;;;;;;;;;;;;;24.04;100.00;99187.78;5032544;28;818;-56
2023/08/05 04:39:54;;;;;;;;;;;;;;;24.12;100.00;99193.72;5032589;28;906;-56
2023/08/05 04:42:21;;;;;;;;;;;;;;;24.19;100.00;99185.50;5032452;28;806;-56
2023/08/05 04:44:49;;;;;;;;;;;;;;;24.33;100.00;99199.91;5032519;28;851;-56
2023/08/05 04:47:15;;;;;;;;;;;;;;;24.51;100.00;99196.56;5032289;28;959;-56
2023/08/05 04:49:43;;;;;;;;;;;;;;;25.03;100.00;99200.91;5032062;28;1210;-57
2023/08/05 04:52:12;;;;;;;;;;;;;;;25.52;100.00;99200.50;5032150;28;1918;-56
2023/08/05 04:54:40;;;;;;;;;;;;;;;25.79;100.00;99193.16;5032027;28;885;-56
2023/08/05 04:57:07;;;;;;;;;;;;;;;25.82;100.00;99200.63;5032029;28;811;-56
2023/08/05 04:59:34;;;;;;;;;;;;;;;25.79;100.00;99196.75;5031976;28;819;-56
2023/08/05 05:02:01;;;;;;;;;;;;;;;25.83;100.00;99193.66;5031881;28;930;-56
2023/08/05 05:04:28;;;;;;;;;;;;;;;25.83;100.00;99188.75;5032147;28;873;-56
2023/08/05 05:06:54;;;;;;;;;;;;;;;25.78;100.00;99186.75;5032030;28;866;-55
2023/08/05 05:09:22;;;;;;;;;;;;;;;25.77;100.00;99192.91;5031909;28;984;-56
2023/08/05 05:11:48;;;;;;;;;;;;;;;25.83;100.00;99188.75;5032092;28;1949;-56
2023/08/05 05:14:15;;;;;;;;;;;;;;;25.99;100.00;99189.19;5031317;28;905;-56
2023/08/05 05:16:42;;;;;;;;;;;;;;;26.17;100.00;99185.75;5031858;28;819;-56
2023/08/05 05:19:09;;;;;;;;;;;;;;;26.19;100.00;99185.97;5031940;28;881;-56
2023/08/05 05:21:36;;;;;;;;;;;;;;;26.21;100.00;99183.41;5031988;28;811;-56
2023/08/05 05:24:04;;;;;;;;;;;;;;;26.29;100.00;99189.28;5031683;28;810;-56
2023/08/05 05:26:31;;;;;;;;;;;;;;;26.36;100.00;99190.75;5031835;28;843;-56
2023/08/05 05:28:58;;;;;;;;;;;;;;;26.45;100.00;99187.59;5031515;28;937;-56
2023/08/05 05:31:25;;;;;;;;;;;;;;;26.59;100.00;99185.72;5031696;28;1889;-57
2023/08/05 05:33:52;;;;;;;;;;;;;;;26.62;100.00;99182.56;5031673;28;925;-56
2023/08/05 05:36:19;;;;;;;;;;;;;;;26.79;100.00;99171.06;5031568;28;922;-56
2023/08/05 05:38:46;;;;;;;;;;;;;;;27.02;100.00;99174.44;5031634;28;858;-56
2023/08/05 05:41:13;;;;;;;;;;;;;;;27.14;100.00;99171.47;5031637;28;854;-56
2023/08/05 05:43:40;;;;;;;;;;;;;;;27.20;100.00;99178.63;5031512;28;834;-56
2023/08/05 05:46:07;;;;;;;;;;;;;;;27.34;100.00;99184.44;5031460;28;874;-56
2023/08/05 05:48:33;;;;;;;;;;;;;;;27.53;100.00;99181.63;5031434;28;1194;-56
2023/08/05 05:51:00;;;;;;;;;;;;;;;27.66;100.00;99176.03;5031711;28;1914;-56
2023/08/05 05:53:27;;;;;;;;;;;;;;;27.89;100.00;99171.59;5038782;28;942;-56
2023/08/05 05:55:55;;;;;;;;;;;;;;;28.10;100.00;99166.13;5051376;28;807;-55
2023/08/05 05:58:22;;;;;;;;;;;;;;;28.29;100.00;99166.09;5051253;28;803;-57
2023/08/05 06:00:53;;;;;;;;;;;;;;;28.57;100.00;99164.88;5051362;28;977;-56
2023/08/05 06:03:20;;;;;;;;;;;;;;;29.25;100.00;99161.56;5051351;28;874;-57
2023/08/05 06:05:50;;;;;;;;;;;;;;;30.20;100.00;99162.84;5051179;28;905;-57
2023/08/05 06:08:17;;;;;;;;;;;;;;;30.74;100.00;99166.94;5051265;28;889;-57
2023/08/05 06:10:44;;;;;;;;;;;;;;;31.02;100.00;99179.69;5051061;28;1945;-56
2023/08/05 06:13:11;;;;;;;;;;;;;;;31.36;100.00;99170.94;5051323;28;838;-57
2023/08/05 06:15:41;;;;;;;;;;;;;;;31.88;99.54;99168.91;5051213;28;854;-57
2023/08/05 06:18:08;;;;;;;;;;;;;;;32.07;97.33;99164.94;5051458;28;890;-56
2023/08/05 06:20:35;;;;;;;;;;;;;;;32.44;96.00;99151.28;5051107;28;878;-55
2023/08/05 06:23:03;;;;;;;;;;;;;;;32.94;93.60;99149.53;5051144;28;958;-57
2023/08/05 06:25:30;;;;;;;;;;;;;;;32.90;91.31;99154.13;5051658;28;848;-56
2023/08/05 06:27:57;;;;;;;;;;;;;;;32.79;91.56;99152.41;5054537;28;845;-54
2023/08/05 06:30:24;;;;;;;;;;;;;;;32.49;92.15;99156.03;5054590;28;1973;-57
2023/08/05 06:32:51;;;;;;;;;;;;;;;33.29;89.11;99157.69;5054837;28;869;-56
2023/08/05 06:35:18;;;;;;;;;;;;;;;33.41;88.06;99161.66;5054543;28;890;-57
2023/08/05 06:37:45;;;;;;;;;;;;;;;33.88;79.92;99153.63;5054502;28;803;-55
2023/08/05 06:40:13;;;;;;;;;;;;;;;33.35;78.00;99153.28;5054356;28;867;-56
2023/08/05 06:42:39;;;;;;;;;;;;;;;33.56;77.75;99152.22;5054608;28;846;-56
2023/08/05 06:45:07;;;;;;;;;;;;;;;34.25;73.15;99143.28;5054356;28;807;-57
2023/08/05 06:47:35;;;;;;;;;;;;;;;34.18;69.76;99152.69;5054290;28;928;-57
2023/08/05 06:50:04;;;;;;;;;;;;;;;34.26;68.81;99147.66;5053764;28;1906;-56
2023/08/05 06:52:31;;;;;;;;;;;;;;;35.14;65.13;99149.41;5054352;28;873;-57
2023/08/05 06:55:01;;;;;;;;;;;;;;;35.46;62.61;99152.66;5036288;28;1370;-56
2023/08/05 06:57:29;;;;;;;;;;;;;;;34.39;65.10;99148.72;5054015;28;937;-57
2023/08/05 06:59:57;;;;;;;;;;;;;;;34.19;65.25;99137.03;5054158;28;783;-56
2023/08/05 07:02:25;;;;;;;;;;;;;;;34.54;63.71;99140.72;5054049;28;882;-58
2023/08/05 07:04:52;;;;;;;;;;;;;;;35.12;60.78;99134.84;5053933;28;910;-57
2023/08/05 07:07:19;;;;;;;;;;;;;;;35.40;59.78;99132.81;5053923;28;901;-57
2023/08/05 07:09:46;;;;;;;;;;;;;;;34.97;59.71;99124.28;5053950;28;850;-58
2023/08/05 07:12:14;;;;;;;;;;;;;;;35.09;60.01;99133.16;5054160;28;1956;-57
2023/08/05 07:14:44;;;;;;;;;;;;;;;35.63;59.65;99134.63;5053750;28;873;-58
2023/08/05 07:17:11;;;;;;;;;;;;;;;36.53;56.62;99131.00;5053677;28;878;-57
2023/08/05 07:19:38;;;;;;;;;;;;;;;36.86;55.57;99129.88;5053578;28;822;-57
2023/08/05 07:22:06;;;;;;;;;;;;;;;36.33;55.21;99132.28;5053701;28;807;-57
2023/08/05 07:24:33;;;;;;;;;;;;;;;36.28;55.48;99124.72;5053566;28;838;-57
2023/08/05 07:27:00;;;;;;;;;;;;;;;36.56;53.87;99124.03;5053525;28;866;-57
2023/08/05 07:29:27;;;;;;;;;;;;;;;36.20;51.76;99118.31;5053489;28;893;-58
2023/08/05 07:31:54;;;;;;;;;;;;;;;35.02;55.09;99118.88;5053430;28;1885;-57
2023/08/05 07:34:22;;;;;;;;;;;;;;;35.53;54.44;99120.97;5053389;28;842;-57
2023/08/05 07:36:49;;;;;;;;;;;;;;;35.67;52.75;99114.88;5052985;28;850;-57
2023/08/05 07:39:16;;;;;;;;;;;;;;;36.11;51.47;99114.03;5035444;28;1340;-57
2023/08/05 07:41:42;;;;;;;;;;;;;;;36.72;49.54;99109.38;5053231;28;870;-57
2023/08/05 07:44:12;;;;;;;;;;;;;;;36.44;50.51;99114.44;5053343;28;815;-58
2023/08/05 07:46:40;;;;;;;;;;;;;;;36.47;50.75;99116.16;5053089;28;850;-58
2023/08/05 07:49:08;;;;;;;;;;;;;;;36.53;49.93;99124.47;5052908;28;1223;-58
2023/08/05 07:51:35;;;;;;;;;;;;;;;36.84;48.24;99109.56;5053026;28;1968;-58
2023/08/05 07:54:02;;;;;;;;;;;;;;;37.07;47.15;99123.53;5053067;28;830;-57
2023/08/05 07:56:28;;;;;;;;;;;;;;;37.19;47.44;99116.56;5052921;28;837;-56
2023/08/05 07:58:55;;;;;;;;;;;;;;;36.81;47.31;99107.88;5053306;28;791;-56
2023/08/05 08:01:22;;;;;;;;;;;;;;;36.89;47.44;99120.00;5052868;28;866;-58
2023/08/05 08:03:53;;;;;;;;;;;;;;;36.82;47.27;99118.81;5052836;28;810;-58
2023/08/05 08:06:20;;;;;;;;;;;;;;;36.68;45.37;99115.63;5052732;28;931;-57
2023/08/05 08:08:47;;;;;;;;;;;;;;;36.22;47.15;99122.13;5034815;28;1223;-57
2023/08/05 08:11:13;;;;;;;;;;;;;;;36.55;46.89;99110.25;5052994;28;1890;-57
2023/08/05 08:13:41;;;;;;;;;;;;;;;36.92;44.84;99124.59;5052779;28;853;-58
2023/08/05 08:16:08;;;;;;;;;;;;;;;36.66;42.30;99114.69;5052694;28;826;-57
2023/08/05 08:18:34;;;;;;;;;;;;;;;36.53;38.87;99116.63;5052543;28;866;-57
2023/08/05 08:21:00;;;;;;;;;;;;;;;36.46;38.45;99108.84;5052609;28;802;-57
2023/08/05 08:23:27;;;;;;;;;;;;;;;36.65;37.63;99108.16;5052457;28;873;-57
2023/08/05 08:25:56;;;;;;;;;;;;;;;36.82;37.67;99109.41;5052372;28;791;-56
2023/08/05 08:28:23;;;;;;;;;;;;;;;37.01;38.17;99109.41;5052344;28;830;-57
2023/08/05 08:30:54;;;;;;;;;;;;;;;37.17;37.57;99107.00;5052225;28;1885;-57
2023/08/05 08:33:24;;;;;;;;;;;;;;;37.39;36.63;99105.03;5052550;28;1248;-57
2023/08/05 08:35:52;;;;;;;;;;;;;;;37.25;37.15;99101.09;5052303;28;822;-58
2023/08/05 08:38:19;;;;;;;;;;;;;;;36.78;38.45;99098.34;5052252;28;811;-59
2023/08/05 08:40:47;;;;;;;;;;;;;;;36.37;38.83;99098.84;5052326;28;822;-58
2023/08/05 08:43:17;;;;;;;;;;;;;;;36.27;38.56;99094.44;5052219;28;917;-57
2023/08/05 08:45:53;;;;;;;;;;;;;;;36.14;38.68;99084.09;5051991;28;893;-57
2023/08/05 08:48:20;;;;;;;;;;;;;;;36.20;37.90;99089.56;5051786;28;1037;-57
2023/08/05 08:50:48;;;;;;;;;;;;;;;36.09;36.32;99085.13;5012347;28;1914;-57
2023/08/05 08:53:15;;;;;;;;;;;;;;;36.28;36.26;99082.31;5012270;28;934;-56
2023/08/05 08:55:43;;;;;;;;;;;;;;;36.65;36.32;99079.38;5012435;28;882;-57
2023/08/05 08:58:11;;;;;;;;;;;;;;;36.64;36.35;99082.88;5012508;28;771;-57
2023/08/05 09:00:38;;;;;;;;;;;;;;;36.46;37.81;99076.47;5012618;28;826;-57
2023/08/05 09:03:05;;;;;;;;;;;;;;;36.22;38.29;99078.97;5012287;28;1243;-56
2023/08/05 09:05:42;;;;;;;;;;;;;;;36.28;37.58;99070.81;5012337;28;1150;-57
2023/08/05 09:08:09;;;;;;;;;;;;;;;36.33;36.44;99077.63;5012256;28;847;-56
2023/08/05 09:10:37;;;;;;;;;;;;;;;36.01;37.02;99073.72;5012074;28;1949;-57
2023/08/05 09:13:03;;;;;;;;;;;;;;;36.01;37.64;99079.47;5012089;28;918;-56
2023/08/05 09:15:35;;;;;;;;;;;;;;;35.99;37.73;99073.56;5012125;28;853;-56
2023/08/05 09:49:05;;;;;;;;;;;;;;;34.94;37.29;99050.06;5229752;23;1524;-68
2023/08/05 09:51:32;;;;;;;;;;;;;;;35.15;37.40;99046.78;5051584;28;1971;-68
2023/08/05 09:54:01;;;;;;;;;;;;;;;35.27;38.60;99041.25;5051491;28;880;-69
2023/08/05 09:56:30;;;;;;;;;;;;;;;35.26;37.70;99039.75;5051446;28;866;-70
2023/08/05 09:58:57;;;;;;;;;;;;;;;35.02;38.13;99024.16;5051386;28;874;-68
2023/08/05 10:01:24;;;;;;;;;;;;;;;34.93;38.39;99031.31;5054888;28;905;-68
2023/08/05 10:03:51;;;;;;;;;;;;;;;35.12;37.76;99024.94;5055113;28;913;-71
2023/08/05 10:06:19;;;;;;;;;;;;;;;35.25;38.08;99038.22;5055270;28;943;-68
2023/08/05 10:08:47;;;;;;;;;;;;;;;35.51;36.86;99034.59;5055095;28;885;-71
2023/08/05 10:11:14;;;;;;;;;;;;;;;35.14;37.75;99037.41;5054958;28;1889;-72
2023/08/05 10:13:43;;;;;;;;;;;;;;;34.95;38.57;99025.75;5055017;28;850;-68
2023/08/05 10:16:10;;;;;;;;;;;;;;;34.89;38.72;99017.41;5055085;28;854;-68
2023/08/05 10:18:37;;;;;;;;;;;;;;;35.04;38.22;99041.53;5054847;28;865;-70
2023/08/05 10:21:06;;;;;;;;;;;;;;;35.12;37.04;99024.94;5055087;28;858;-69
2023/08/05 10:23:34;;;;;;;;;;;;;;;35.14;37.72;99028.03;5054827;28;838;-71
2023/08/05 10:26:02;;;;;;;;;;;;;;;35.21;36.65;99029.28;5036802;28;794;-70
2023/08/05 10:28:30;;;;;;;;;;;;;;;35.25;38.14;99021.75;5054886;28;831;-71
2023/08/05 10:30:57;;;;;;;;;;;;;;;35.33;37.66;99007.28;5054726;28;1890;-70
2023/08/05 10:33:28;;;;;;;;;;;;;;;35.55;37.47;99014.81;5054623;28;883;-67
2023/08/05 10:36:04;;;;;;;;;;;;;;;35.69;36.80;99009.44;5054738;28;830;-68
2023/08/05 10:38:40;;;;;;;;;;;;;;;35.84;36.04;99013.44;5054546;28;822;-67
2023/08/05 10:41:10;;;;;;;;;;;;;;;35.91;34.89;99016.19;5054532;28;845;-70
2023/08/05 10:43:37;;;;;;;;;;;;;;;35.77;35.70;99004.34;5054627;28;827;-69
2023/08/05 10:46:06;;;;;;;;;;;;;;;35.80;36.69;99005.25;5054721;28;790;-73
2023/08/05 10:48:37;;;;;;;;;;;;;;;35.69;35.40;99000.81;5054417;28;1204;-69
2023/08/05 10:51:08;;;;;;;;;;;;;;;35.62;35.06;98995.19;5054310;28;1975;-68
2023/08/05 10:53:34;;;;;;;;;;;;;;;35.73;37.11;99006.91;5054458;28;889;-69
2023/08/05 10:56:01;;;;;;;;;;;;;;;35.69;37.65;99005.81;5054261;28;846;-69
2023/08/05 11:01:51;;;;;;;;;;;;;;;35.48;36.96;99004.19;5054104;28;950;-70
2023/08/05 11:04:30;;;;;;;;;;;;;;;35.51;34.96;99002.25;5054050;28;830;-68
2023/08/05 11:06:59;;;;;;;;;;;;;;;35.70;35.89;98999.47;5053992;28;878;-67
2023/08/05 11:09:32;;;;;;;;;;;;;;;36.37;35.33;98983.78;5053952;28;917;-68
2023/08/05 11:11:59;;;;;;;;;;;;;;;36.60;34.45;98985.47;5053264;28;1898;-67
2023/08/05 11:14:27;;;;;;;;;;;;;;;36.23;35.95;98981.94;5053951;28;818;-70
2023/08/05 11:17:00;;;;;;;;;;;;;;;36.20;35.29;98983.16;5053714;28;897;-66
2023/08/05 11:19:26;;;;;;;;;;;;;;;36.32;36.11;98984.84;5053789;28;886;-66
2023/08/05 11:21:53;;;;;;;;;;;;;;;36.43;37.28;98986.34;5053722;28;900;-69
2023/08/05 11:24:20;;;;;;;;;;;;;;;36.77;37.85;98970.94;5053685;28;877;-66
2023/08/05 11:26:47;;;;;;;;;;;;;;;36.85;36.11;98978.63;5053691;28;834;-68
2023/08/05 11:29:14;;;;;;;;;;;;;;;37.06;35.47;98970.09;5053569;28;814;-65
2023/08/05 11:31:49;;;;;;;;;;;;;;;37.07;35.66;98971.63;5053521;28;1914;-65
2023/08/05 11:34:22;;;;;;;;;;;;;;;37.19;35.00;98961.03;5053474;28;865;-69
2023/08/05 11:36:56;;;;;;;;;;;;;;;36.92;32.02;98975.59;5053780;28;853;-65
2023/08/05 11:39:25;;;;;;;;;;;;;;;37.16;32.88;98979.53;5053425;28;877;-67
2023/08/05 11:41:52;;;;;;;;;;;;;;;37.14;34.85;98964.97;5053435;28;860;-68
2023/08/05 11:44:20;;;;;;;;;;;;;;;36.98;35.14;98961.66;5053259;28;909;-67
2023/08/05 11:46:47;;;;;;;;;;;;;;;37.30;34.57;98956.75;5053258;28;1006;-64
2023/08/05 11:49:14;;;;;;;;;;;;;;;37.81;31.82;98959.56;5052830;28;1230;-66
2023/08/05 11:51:51;;;;;;;;;;;;;;;37.57;31.36;98950.72;5053160;28;1918;-69
2023/08/05 11:54:38;;;;;;;;;;;;;;;37.45;32.44;98937.56;5053405;28;825;-64
2023/08/05 11:57:18;;;;;;;;;;;;;;;37.53;33.14;98944.66;5053401;28;885;-66
2023/08/05 11:59:46;;;;;;;;;;;;;;;37.33;33.13;98941.13;5052995;28;844;-71
2023/08/05 12:02:17;;;;;;;;;;;;;;;37.35;34.15;98938.38;5053246;28;822;-68
2023/08/05 12:04:51;;;;;;;;;;;;;;;38.03;33.62;98937.31;5052846;28;1032;-68
2023/08/05 12:07:19;;;;;;;;;;;;;;;38.00;33.25;98921.22;5052733;28;865;-67
2023/08/05 12:10:07;;;;;;;;;;;;;;;37.61;33.88;98930.09;5052904;28;814;-70
2023/08/05 12:12:38;;;;;;;;;;;;;;;37.27;33.85;98922.63;5052782;28;1262;-70
2023/08/05 12:15:11;;;;;;;;;;;;;;;37.14;34.69;98918.88;5052633;28;862;-69
2023/08/05 12:17:37;;;;;;;;;;;;;;;36.94;34.86;98905.91;5052698;28;853;-68
2023/08/05 12:20:10;;;;;;;;;;;;;;;36.81;35.77;98907.16;5052607;28;893;-68
2023/08/05 12:22:37;;;;;;;;;;;;;;;36.93;35.75;98915.91;5052509;28;814;-68
2023/08/05 12:25:05;;;;;;;;;;;;;;;37.28;34.45;98901.88;5052599;28;818;-68
2023/08/05 12:27:32;;;;;;;;;;;;;;;37.91;34.13;98914.13;5052449;28;1269;-69
2023/08/05 12:29:59;;;;;;;;;;;;;;;38.18;33.39;98907.31;5052397;28;1184;-66
2023/08/05 12:32:25;;;;;;;;;;;;;;;38.46;33.33;98896.88;5052376;28;1965;-69
2023/08/05 12:34:53;;;;;;;;;;;;;;;38.54;33.12;98896.69;5052370;28;910;-70
2023/08/05 12:37:20;;;;;;;;;;;;;;;38.97;32.31;98893.69;5052450;28;1149;-69
2023/08/05 12:39:47;;;;;;;;;;;;;;;39.32;31.58;98881.41;5052457;28;1187;-69
2023/08/05 12:42:14;;;;;;;;;;;;;;;38.98;31.46;98880.75;5052192;28;901;-68
2023/08/05 12:44:40;;;;;;;;;;;;;;;38.68;31.99;98871.63;5052080;28;1237;-69
2023/08/05 12:47:07;;;;;;;;;;;;;;;38.82;32.53;98886.22;5052306;28;945;-69
2023/08/05 12:49:36;;;;;;;;;;;;;;;39.13;32.39;98885.28;5051858;28;1383;-65
2023/08/05 12:52:04;;;;;;;;;;;;;;;39.40;31.61;98867.47;5052020;28;1987;-68
2023/08/05 12:54:31;;;;;;;;;;;;;;;38.14;33.73;98873.16;5052110;28;886;-70
2023/08/05 12:56:57;;;;;;;;;;;;;;;37.89;34.33;98870.75;5052203;28;870;-69
2023/08/05 12:59:25;;;;;;;;;;;;;;;37.80;33.93;98868.69;5052186;28;874;-70
2023/08/05 13:01:51;;;;;;;;;;;;;;;38.11;33.63;98868.66;5052180;28;945;-68
2023/08/05 13:04:21;;;;;;;;;;;;;;;38.23;33.37;98879.47;5052035;28;1188;-68
2023/08/05 13:06:48;;;;;;;;;;;;;;;38.89;32.03;98876.56;5051912;28;827;-72
2023/08/05 13:09:17;;;;;;;;;;;;;;;39.07;31.45;98884.91;5051743;28;917;-69
2023/08/05 13:11:48;;;;;;;;;;;;;;;38.77;31.84;98876.56;5051726;28;1957;-69
2023/08/05 13:14:15;;;;;;;;;;;;;;;38.84;32.28;98882.72;5051717;28;893;-69
2023/08/05 13:16:41;;;;;;;;;;;;;;;39.43;31.96;98877.03;5051697;28;885;-68
2023/08/05 13:19:08;;;;;;;;;;;;;;;38.95;32.56;98874.09;5051769;28;826;-71
2023/08/05 13:21:35;;;;;;;;;;;;;;;38.15;33.46;98889.13;5051879;28;897;-70
2023/08/05 13:24:02;;;;;;;;;;;;;;;38.13;33.61;98874.56;5051824;28;838;-70
2023/08/05 13:26:30;;;;;;;;;;;;;;;38.08;33.98;98874.91;5051674;28;810;-67
2023/08/05 13:28:57;;;;;;;;;;;;;;;38.17;33.24;98869.06;5051776;28;822;-72
2023/08/05 13:31:24;;;;;;;;;;;;;;;38.42;32.96;98882.19;5051479;28;1886;-72
2023/08/05 13:33:51;;;;;;;;;;;;;;;38.57;33.06;98870.22;5051880;28;809;-68
2023/08/05 13:36:17;;;;;;;;;;;;;;;39.03;32.34;98873.88;5055071;28;893;-67